Pagrindinis puslapis
METAR-TAF:

METAR-TAF

Oro uostai :

Igiugig, Aliaska, Jungtinės Amerikos Valstijos

platuma: 59-19-27N, ilguma: 155-54-06W, Aukštis: 27 m

Dabartinis oras

Ataskaita buvo paskelbta 34 minutes, ne 02:56 UTC
Vėjas 5 kt iš Pietų
Temperatūra -15°C
Drėgmė 60%
Slėgis 1021 hPa
Matomumas: 16.1 km
Giedras dangus

METAR: PAIG 290256Z AUTO 17005KT 10SM CLR M15/M21 A3014 RMK AO2 SLP218 T11501206 50002 FZRANO $

Laikas: 18:30 (03:30 UTC)


TAF: trūkstamas

Orai ataskaitas ir orų prognozės (METAR, TAF).

turimą stotys yra geltonos ir raudonos taškus žemėlapyje.

Perkelti pele per norėdami pamatyti stoties vardą.

Tada spustelėkite, norėdami matyti oro stebėjimo ir prognozės.

Norėdami pakeisti žemėlapį: spustelėkite ant žalios mygtukų su juodo kryžiaus žemyn,; žalią mygtuką su brūkšneliu, jei norite nutolinti; arba žalių rodyklių gretimoms žemėlapius.


METAR-TAF: